Flight Track Log - Related Links

Times and Time Zones

All times are in EDT time to prevent confusion due to time zone crossing. See the N677F flight status page for this flight to view local times or setup timezone preferences in your user account.

Time Position Orientation Groundspeed Altitude Reporting Facility
EDT Latitude Longitude Course Direction KTS MPH feet Rate Location/Type
Thu 11:37:38 PM 39.9472 -105.1461 360° North 198 228 7,200  Level Denver Center
Thu 11:38:39 PM 40.0186 -105.1456 360° North 234 269 8,000 1,366 Climbing Denver Center
Thu 11:39:41 PM 40.0678 -105.0711 49° Northeast 275 316 10,000 1,561 Climbing Denver Center
Thu 11:40:42 PM 40.1019 -104.9647 67° East 327 376 11,200 1,756 Climbing Denver Center
Thu 11:41:44 PM 40.0908 -104.8331 96° East 371 427 13,600 2,293 Climbing Denver Center
Thu 11:42:45 PM 40.0522 -104.6911 110° East 383 441 15,900 2,146 Climbing Denver Center
Thu 11:43:47 PM 40.0133 -104.5536 110° East 398 458 18,000 1,805 Climbing Denver Center
Thu 11:44:48 PM 39.9758 -104.4108 109° East 412 474 19,600 1,659 Climbing Denver Center
Thu 11:45:50 PM 39.9383 -104.2592 108° East 437 503 21,400 1,756 Climbing Denver Center
Thu 11:46:51 PM 39.9178 -104.0858 99° East 452 520 23,200 1,623 Climbing Denver Center
Thu 11:47:52 PM 39.8972 -103.9314 100° East 459 528 24,700 1,333 Climbing Denver Center
Thu 11:49:06 PM 39.8761 -103.7583 99° East 483 556 26,200 1,422 Climbing Denver Center
Thu 11:50:07 PM 39.8500 -103.5508 99° East 487 560 27,900 1,366 Climbing Denver Center
Thu 11:51:09 PM 39.8264 -103.3708 100° East 501 577 29,000 1,220 Climbing Denver Center
Thu 11:52:10 PM 39.7978 -103.1508 100° East 515 593 30,400 1,328 Climbing Denver Center
Thu 11:53:11 PM 39.7719 -102.9631 100° East 527 606 31,700 1,317 Climbing Denver Center
Thu 11:54:13 PM 39.7478 -102.7758 99° East 526 605 33,100 1,512 Climbing Denver Center
Thu 11:55:14 PM 39.7203 -102.5814 100° East 522 601 34,800 927 Climbing Denver Center
Thu 11:56:16 PM 39.6961 -102.4064 100° East 518 596 35,000 341 Climbing Denver Center
Thu 11:57:17 PM 39.6722 -102.2314 100° East 517 595 35,500 934 Climbing Denver Center
Thu 11:58:18 PM 39.6431 -102.0281 100° East 515 593 36,900 1,268 Climbing Denver Center
Thu 11:59:20 PM 39.6178 -101.8519 101° East 520 598 38,100 1,366 Climbing Denver Center
Fri 12:00:21 AM 39.5883 -101.6483 101° East 518 596 39,700 1,279 Climbing Denver Center
Fri 12:01:22 AM 39.5633 -101.4775 101° East 510 587 40,700 634 Climbing Denver Center
Fri 12:02:24 AM 39.5378 -101.3072 101° East 506 582 41,000 146 Climbing Denver Center
Fri 12:03:25 AM 39.5075 -101.1078 101° East 507 583 41,000  Level Denver Center
Fri 12:04:26 AM 39.4822 -100.9386 101° East 503 579 41,000  Level Denver Center
Fri 12:05:28 AM 39.4514 -100.7408 101° East 504 580 41,000  Level Denver Center
Fri 12:06:29 AM 39.4250 -100.5681 101° East 510 587 41,000  Level Denver Center
Fri 12:07:30 AM 39.3936 -100.3681 101° East 510 587 41,000  Level Denver Center
Fri 12:08:31 AM 39.3675 -100.2019 101° East 500 575 41,000  Level Denver Center
Fri 12:09:33 AM 39.3406 -100.0347 102° East 497 572 41,000  Level Denver Center
Fri 12:10:34 AM 39.3081 -99.8356 102° East 507 583 41,000  Level Denver Center
Fri 12:11:35 AM 39.2806 -99.6644 102° East 510 587 41,000  Level Denver Center
Fri 12:12:36 AM 39.2472 -99.4650 102° East 510 587 41,000  Level Denver Center
Fri 12:13:38 AM 39.2186 -99.2939 102° East 511 588 41,000  Level Denver Center
Fri 12:14:39 AM 39.1897 -99.1233 102° East 510 587 41,000  Level Denver Center
Fri 12:15:40 AM 39.1603 -98.9497 102° East 503 579 41,000  Level Denver Center
Fri 12:16:41 AM 39.1300 -98.7722 102° East 506 582 41,000  Level Denver Center
Fri 12:17:42 AM 39.0986 -98.5950 103° East 508 585 41,000  Level Denver Center
Fri 12:18:58 AM 39.0586 -98.3583 102° East 501 577 41,000  Level Kansas City Center
Fri 12:20:01 AM 39.0267 -98.1819 103° East 505 581 41,000  Level Kansas City Center
Fri 12:21:00 AM 38.9942 -98.0044 103° East 507 583 41,000  Level Kansas City Center
Fri 12:22:01 AM 38.9636 -97.8317 103° East 510 587 41,000  Level Kansas City Center
Fri 12:23:04 AM 38.9039 -97.6417 112° Southeast 522 601 41,000  Level Kansas City Center
Fri 12:24:05 AM 38.8431 -97.4861 117° Southeast 525 604 41,000  Level Kansas City Center
Fri 12:25:05 AM 38.7756 -97.3172 117° Southeast 531 611 41,000  Level Kansas City Center
Fri 12:26:07 AM 38.7083 -97.1519 117° Southeast 524 603 41,000  Level Kansas City Center
Fri 12:27:07 AM 38.6408 -96.9853 117° Southeast 525 604 41,000  Level Kansas City Center
Fri 12:28:08 AM 38.5606 -96.7914 118° Southeast 532 612 41,000  Level Kansas City Center
Fri 12:29:07 AM 38.4947 -96.6333 118° Southeast 529 609 41,000  Level Kansas City Center
Fri 12:30:11 AM 38.4236 -96.4578 117° Southeast 532 612 41,000  Level Kansas City Center
Fri 12:31:09 AM 38.3528 -96.2897 118° Southeast 528 608 41,000  Level Kansas City Center
Fri 12:32:12 AM 38.2708 -96.1467 126° Southeast 529 609 41,000  Level Kansas City Center
Fri 12:33:13 AM 38.1639 -96.0297 139° Southeast 532 612 41,000  Level Kansas City Center
Fri 12:34:14 AM 38.0250 -95.9186 148° Southeast 531 611 41,000  Level Kansas City Center
Fri 12:35:13 AM 37.9094 -95.8253 147° Southeast 530 610 41,000  Level Kansas City Center
Fri 12:36:16 AM 37.7864 -95.7269 148° Southeast 524 603 41,000  Level Kansas City Center
Fri 12:37:17 AM 37.6631 -95.6281 148° Southeast 523 602 41,000  Level Kansas City Center
Fri 12:38:18 AM 37.5400 -95.5242 146° Southeast 527 606 41,000  Level Kansas City Center
Fri 12:39:18 AM 37.4178 -95.4200 146° Southeast 528 608 41,000  Level Kansas City Center
Fri 12:40:19 AM 37.2989 -95.3094 143° Southeast 528 608 41,000  Level Kansas City Center
Fri 12:41:19 AM 37.2669 -95.1406 103° East 512 589 41,000  Level Kansas City Center
Fri 12:42:19 AM 37.3575 -94.9894 53° Northeast 459 528 41,000  Level Kansas City Center
Fri 12:43:21 AM 37.4511 -94.8933 39° Northeast 439 505 41,000  Level Kansas City Center
Fri 12:44:20 AM 37.5456 -94.7936 40° Northeast 438 504 41,000  Level Kansas City Center
Fri 12:45:23 AM 37.6397 -94.6961 39° Northeast 439 505 41,000  Level Kansas City Center
Fri 12:46:24 AM 37.7286 -94.6003 40° Northeast 440 506 41,000  Level Kansas City Center
Fri 12:47:25 AM 37.8194 -94.5053 40° Northeast 442 509 41,000  Level Kansas City Center
Fri 12:48:24 AM 37.9150 -94.4036 40° Northeast 439 505 41,000 149 Level Kansas City Center
Fri 12:49:26 AM 38.0144 -94.2981 40° Northeast 443 510 41,300 488 Climbing Kansas City Center
Fri 12:50:27 AM 38.1044 -94.1975 41° Northeast 448 516 42,000 347 Climbing Kansas City Center
Fri 12:51:27 AM 38.1792 -94.0625 55° Northeast 463 533 42,000  Level Kansas City Center
Fri 12:52:26 AM 38.2486 -93.9228 58° Northeast 466 536 42,000  Level Kansas City Center
Fri 12:53:27 AM 38.3161 -93.7842 58° Northeast 464 534 42,000  Level Kansas City Center
Fri 12:54:30 AM 38.3825 -93.6503 58° Northeast 453 521 42,000  Level Kansas City Center
Fri 12:55:30 AM 38.4464 -93.5181 58° Northeast 442 509 42,000  Level Kansas City Center
Fri 12:56:31 AM 38.5144 -93.3789 58° Northeast 451 519 42,000  Level Kansas City Center
Fri 12:57:30 AM 38.5839 -93.2394 57° Northeast 458 527 42,000  Level Kansas City Center
Fri 12:58:33 AM 38.6531 -93.0975 58° Northeast 464 534 42,000  Level Kansas City Center
Fri 01:00:00 AM 38.6244 -92.9253 53° Northeast  Level FlightAware Approximate
Fri 01:01:34 AM 38.8564 -92.6725 53° Northeast 461 531 42,000  Level Kansas City Center
Fri 01:02:34 AM 38.9372 -92.5042 58° Northeast 460 529 42,800 492 Climbing Kansas City Center
Fri 01:03:36 AM 39.0053 -92.3633 58° Northeast 460 529 43,000 99 Climbing Kansas City Center
Fri 01:04:35 AM 39.0806 -92.2264 55° Northeast 467 537 43,000  Level Kansas City Center
Fri 01:05:35 AM 39.1789 -92.1328 36° Northeast 450 518 43,000  Level Kansas City Center
Fri 01:06:38 AM 39.2822 -92.0922 17° North 423 487 43,000  Level Kansas City Center
Fri 01:07:36 AM 39.3889 -92.0717 North 399 459 43,000  Level Kansas City Center
Fri 01:08:37 AM 39.4950 -92.0517 North 391 450 43,000  Level Kansas City Center
Fri 01:09:38 AM 39.6006 -92.0275 10° North 390 449 43,000  Level Kansas City Center
Fri 01:10:39 AM 39.7053 -92.0056 North 387 445 43,000  Level Kansas City Center
Fri 01:11:39 AM 39.8106 -91.9811 10° North 387 445 43,000  Level Kansas City Center
Fri 01:12:41 AM 39.9156 -91.9608 North 388 447 43,000  Level Kansas City Center
Fri 01:13:42 AM 40.0194 -91.9381 10° North 384 442 43,000  Level Kansas City Center
Fri 01:14:42 AM 40.1425 -91.9114 North 380 437 43,000  Level Kansas City Center
Fri 01:15:42 AM 40.2464 -91.8892 North 381 438 43,000  Level Kansas City Center
Fri 01:16:44 AM 40.3489 -91.8675 North 380 437 43,000  Level Kansas City Center
Fri 01:17:42 AM 40.4531 -91.8456 North 382 440 43,000  Level Kansas City Center
Fri 01:18:45 AM 40.5575 -91.8242 North 384 442 43,000  Level Kansas City Center
Fri 01:19:45 AM 40.6617 -91.8014 North 384 442 43,000  Level Kansas City Center
Fri 01:20:20 AM 40.7233 -91.7972 North 380 437 43,000  Level Chicago Center
Fri 01:21:20 AM 40.8194 -91.8261 347° North 358 412 43,000  Level Chicago Center
Fri 01:22:20 AM 40.9150 -91.8575 346° North 357 411 43,000  Level Chicago Center
Fri 01:23:21 AM 41.0103 -91.8867 347° North 357 411 43,000  Level Chicago Center
Fri 01:24:21 AM 41.1247 -91.9256 346° North 359 413 43,000  Level Chicago Center
Fri 01:25:21 AM 41.2200 -91.9531 348° North 354 407 43,000  Level Chicago Center
Fri 01:26:21 AM 41.3117 -91.9856 345° North 361 415 43,000  Level Chicago Center
Fri 01:27:22 AM 41.4106 -92.0172 346° North 366 421 43,000  Level Chicago Center
Fri 01:28:22 AM 41.5072 -92.0494 346° North 361 415 43,000  Level Chicago Center
Fri 01:29:22 AM 41.6058 -92.0814 346° North 365 420 43,000  Level Chicago Center
Fri 01:30:22 AM 41.6972 -92.1292 339° North 356 410 43,000  Level Chicago Center
Fri 01:31:23 AM 41.7567 -92.2222 311° West 333 383 43,000  Level Chicago Center
Fri 01:32:23 AM 41.8044 -92.3303 301° West 331 381 43,000  Level Chicago Center
Fri 01:33:23 AM 41.8517 -92.4378 301° West 334 384 43,000  Level Chicago Center
Fri 01:34:23 AM 41.8983 -92.5456 300° West 336 387 43,000  Level Chicago Center
Fri 01:35:24 AM 41.9467 -92.6517 302° West 335 386 43,000  Level Chicago Center
Fri 01:36:24 AM 41.9939 -92.7611 300° West 338 389 43,000  Level Chicago Center
Fri 01:37:24 AM 42.0422 -92.8700 301° West 342 394 43,000  Level Chicago Center
Fri 01:38:24 AM 42.0986 -93.0006 300° West 338 389 43,000  Level Chicago Center
Fri 01:39:24 AM 42.1472 -93.1075 302° West 338 389 43,000  Level Chicago Center
Fri 01:40:25 AM 42.1947 -93.2175 300° West 342 394 43,000  Level Chicago Center
Fri 01:41:25 AM 42.2411 -93.3269 300° West 340 391 43,000  Level Chicago Center
Fri 01:42:25 AM 42.2881 -93.4344 301° West 336 387 43,000  Level Chicago Center
Fri 01:43:25 AM 42.3342 -93.5442 300° West 338 389 43,000  Level Chicago Center
Fri 01:44:25 AM 42.3811 -93.6517 301° West 335 386 43,000  Level Chicago Center
Fri 01:45:30 AM 42.4267 -93.7600 300° West 334 384 43,000  Level Minneapolis Center
Fri 01:46:30 AM 42.4739 -93.8681 301° West 335 386 43,000  Level Minneapolis Center
Fri 01:47:30 AM 42.5197 -93.9778 300° West 338 389 43,000  Level Minneapolis Center
Fri 01:48:31 AM 42.5675 -94.0889 300° West 343 395 43,000  Level Minneapolis Center
Fri 01:49:31 AM 42.6153 -94.1997 300° West 343 395 43,000  Level Minneapolis Center
Fri 01:50:31 AM 42.6589 -94.3117 298° West 340 391 43,000  Level Minneapolis Center
Fri 01:51:32 AM 42.7067 -94.4244 300° West 346 398 43,000  Level Minneapolis Center
Fri 01:53:32 AM 42.8058 -94.6614 300° West 343 395 43,000  Level Minneapolis Center
Fri 01:54:33 AM 42.8536 -94.7781 299° West 351 404 43,000  Level Minneapolis Center
Fri 01:55:33 AM 42.9017 -94.8936 300° West 351 404 43,000  Level Minneapolis Center
Fri 01:56:33 AM 42.9489 -95.0106 299° West 353 406 43,000  Level Minneapolis Center
Fri 01:57:34 AM 42.9958 -95.1253 299° West 349 402 43,000  Level Minneapolis Center
Fri 01:58:34 AM 43.0417 -95.2392 299° West 344 396 43,000  Level Minneapolis Center
Fri 01:59:34 AM 43.0875 -95.3519 299° West 340 391 43,000  Level Minneapolis Center
Fri 02:00:35 AM 43.1350 -95.4711 299° West 352 405 43,000  Level Minneapolis Center
Fri 02:01:35 AM 43.1819 -95.5886 299° West 352 405 43,000  Level Minneapolis Center
Fri 02:02:36 AM 43.2289 -95.7050 299° West 350 403 43,000  Level Minneapolis Center
Fri 02:03:36 AM 43.2756 -95.8211 299° West 348 400 43,000  Level Minneapolis Center
Fri 02:04:36 AM 43.3219 -95.9408 298° West 352 405 43,000  Level Minneapolis Center
Fri 02:05:37 AM 43.3683 -96.0586 298° West 351 404 43,000  Level Minneapolis Center
Fri 02:06:37 AM 43.4150 -96.1764 299° West 351 404 43,000  Level Minneapolis Center
Fri 02:07:37 AM 43.4617 -96.2961 298° West 353 406 43,000  Level Minneapolis Center
Fri 02:08:38 AM 43.5081 -96.4169 298° West 356 410 43,000  Level Minneapolis Center
Fri 02:09:38 AM 43.6031 -96.5142 323° Northwest 395 455 43,000 50 Level Minneapolis Center
Fri 02:10:38 AM 43.7111 -96.4128 34° Northeast 494 568 43,100  Climbing Minneapolis Center
Fri 02:11:38 AM 43.7139 -96.2106 89° East 552 635 43,000 -50 Descending Minneapolis Center
Fri 02:12:39 AM 43.6581 -96.0197 112° Southeast 548 631 43,000  Level Minneapolis Center
Fri 02:13:39 AM 43.5875 -95.8381 118° Southeast 544 626 43,000  Level Minneapolis Center
Fri 02:15:40 AM 43.4408 -95.4806 119° Southeast 540 621 43,000  Level Minneapolis Center
Fri 02:16:41 AM 43.3553 -95.3133 125° Southeast 539 620 43,000  Level Minneapolis Center
Fri 02:17:42 AM 43.2700 -95.1428 124° Southeast 543 625 43,000  Level Minneapolis Center
Fri 02:18:42 AM 43.1842 -94.9717 124° Southeast 545 627 43,000  Level Minneapolis Center
Fri 02:19:54 AM 43.0981 -94.8000 124° Southeast 547 629 43,000  Level Minneapolis Center
Fri 02:20:55 AM 42.9928 -94.5925 125° Southeast 550 633 43,000  Level Minneapolis Center
Fri 02:21:55 AM 42.9147 -94.4397 125° Southeast 550 633 43,000  Level Minneapolis Center
Fri 02:22:55 AM 42.8122 -94.2381 125° Southeast 547 629 43,000  Level Minneapolis Center
Fri 02:23:56 AM 42.7239 -94.0686 125° Southeast 552 635 43,000  Level Minneapolis Center
Fri 02:24:56 AM 42.6356 -93.8997 125° Southeast 553 636 43,000  Level Minneapolis Center
Fri 02:25:56 AM 42.5467 -93.7328 126° Southeast 553 636 43,000  Level Minneapolis Center
Fri 02:26:57 AM 42.4589 -93.5636 125° Southeast 553 636 43,000  Level Minneapolis Center
Fri 02:27:57 AM 42.3686 -93.3936 126° Southeast 561 646 43,000  Level Minneapolis Center
Fri 02:28:57 AM 42.2792 -93.2242 125° Southeast 562 647 43,000  Level Minneapolis Center
Fri 02:29:57 AM 42.1625 -93.1131 145° Southeast 528 608 43,000  Level Minneapolis Center
Fri 02:30:58 AM 42.0581 -93.1736 203° Southwest 433 498 43,000  Level Minneapolis Center
Fri 02:31:58 AM 42.0806 -93.2892 285° West 351 404 43,000  Level Minneapolis Center
Fri 02:32:58 AM 42.1583 -93.3711 322° Northwest 363 418 43,000  Level Minneapolis Center
Fri 02:33:59 AM 42.2106 -93.4769 304° West 350 403 43,000  Level Minneapolis Center
Fri 02:34:59 AM 42.2581 -93.5836 301° West 342 394 43,000  Level Minneapolis Center
Fri 02:35:59 AM 42.3289 -93.6694 318° Northwest 351 404 43,000  Level Minneapolis Center
Fri 02:37:00 AM 42.4131 -93.7461 326° Northwest 364 419 43,000  Level Minneapolis Center
Fri 02:38:00 AM 42.5108 -93.8367 326° Northwest 360 414 43,000 250 Level Minneapolis Center
Fri 02:39:00 AM 42.5950 -93.9131 326° Northwest 364 419 43,500 694 Climbing Minneapolis Center
Fri 02:40:01 AM 42.6753 -93.9903 325° Northwest 358 412 44,400 694 Climbing Minneapolis Center
Fri 02:41:01 AM 42.7536 -94.0694 323° Northwest 354 407 44,900 300 Climbing Minneapolis Center
Fri 02:42:01 AM 42.8314 -94.1500 323° Northwest 354 407 45,000 50 Climbing Minneapolis Center
Fri 02:43:02 AM 42.8867 -94.2581 305° West 351 404 45,000  Level Minneapolis Center
Fri 02:44:02 AM 42.9231 -94.3803 292° West 352 405 45,000  Level Minneapolis Center
Fri 02:45:02 AM 42.9606 -94.4981 294° West 344 396 45,000  Level Minneapolis Center
Fri 02:46:03 AM 42.9997 -94.6222 293° West 337 388 45,000  Level Minneapolis Center
Fri 02:47:03 AM 43.0372 -94.7394 294° West 337 388 45,000  Level Minneapolis Center
Fri 02:48:03 AM 43.0742 -94.8592 293° West 340 391 45,000  Level Minneapolis Center
Fri 02:49:04 AM 43.1183 -94.9758 297° West 344 396 45,000  Level Minneapolis Center
Fri 02:50:04 AM 43.1867 -95.0758 313° West 356 410 45,000  Level Minneapolis Center
Fri 02:51:04 AM 43.2536 -95.1772 312° West 358 412 45,000  Level Minneapolis Center
Fri 02:52:05 AM 43.3211 -95.2781 313° West 358 412 45,000  Level Minneapolis Center
Fri 02:53:05 AM 43.3886 -95.3817 312° West 362 417 45,000  Level Minneapolis Center
Fri 02:54:05 AM 43.4558 -95.4850 312° West 363 418 45,000  Level Minneapolis Center
Fri 02:55:06 AM 43.5239 -95.5889 312° West 364 419 45,000  Level Minneapolis Center
Fri 02:56:06 AM 43.5911 -95.6936 312° West 365 420 45,000  Level Minneapolis Center
Fri 02:57:06 AM 43.6592 -95.7981 312° West 365 420 45,000  Level Minneapolis Center
Fri 02:58:07 AM 43.7275 -95.9047 312° West 369 425 45,000  Level Minneapolis Center
Fri 02:59:07 AM 43.7964 -96.0108 312° West 370 426 45,000  Level Minneapolis Center
Fri 03:00:08 AM 43.8639 -96.1178 311° West 369 425 45,000  Level Minneapolis Center
Fri 03:01:08 AM 43.9328 -96.2253 312° West 369 425 45,000  Level Minneapolis Center
Fri 03:02:08 AM 44.0014 -96.3356 311° West 371 427 45,000  Level Minneapolis Center
Fri 03:03:09 AM 44.0706 -96.4494 310° West 376 433 45,000  Level Minneapolis Center
Fri 03:04:09 AM 44.1419 -96.5592 312° West 378 435 45,000  Level Minneapolis Center
Fri 03:05:09 AM 44.2417 -96.6242 335° Northwest 413 475 45,000  Level Minneapolis Center
Fri 03:06:10 AM 44.3533 -96.5200 34° Northeast 500 575 45,000  Level Minneapolis Center
Fri 03:07:10 AM 44.3825 -96.3122 79° East 539 620 45,000  Level Minneapolis Center
Fri 03:08:10 AM 44.4111 -96.1025 79° East 537 618 45,000  Level Minneapolis Center
Fri 03:09:11 AM 44.4231 -95.8919 85° East 541 623 45,000  Level Minneapolis Center
Fri 03:10:11 AM 44.3792 -95.6933 107° East 532 612 45,000  Level Minneapolis Center
Fri 03:11:12 AM 44.2950 -95.5258 125° Southeast 524 603 45,000  Level Minneapolis Center
Fri 03:12:12 AM 44.2083 -95.3642 127° Southeast 520 598 45,000  Level Minneapolis Center
Fri 03:13:12 AM 44.1214 -95.2011 127° Southeast 522 601 45,000  Level Minneapolis Center
Fri 03:14:13 AM 44.0306 -95.0358 127° Southeast 533 613 45,000  Level Minneapolis Center
Fri 03:15:13 AM 43.9425 -94.8697 126° Southeast 535 616 45,000  Level Minneapolis Center
Fri 03:16:13 AM 43.8522 -94.7064 127° Southeast 535 616 45,000  Level Minneapolis Center
Fri 03:17:14 AM 43.7625 -94.5397 127° Southeast 539 620 45,000  Level Minneapolis Center
Fri 03:18:14 AM 43.6725 -94.3742 127° Southeast 540 621 45,000  Level Minneapolis Center
Fri 03:19:15 AM 43.5792 -94.2039 127° Southeast 537 618 45,000  Level Minneapolis Center
Fri 03:20:15 AM 43.4983 -94.0567 127° Southeast 548 631 45,000  Level Minneapolis Center
Fri 03:21:15 AM 43.4075 -93.8931 127° Southeast 546 628 45,000  Level Minneapolis Center
Fri 03:22:16 AM 43.3167 -93.7300 127° Southeast 545 627 45,000  Level Minneapolis Center
Fri 03:23:16 AM 43.2256 -93.5675 128° Southeast 541 623 45,000  Level Minneapolis Center
Fri 03:24:17 AM 43.1336 -93.4039 128° Southeast 548 631 45,000  Level Minneapolis Center
Fri 03:25:17 AM 43.0208 -93.2061 128° Southeast 555 639 45,000  Level Minneapolis Center
Fri 03:26:17 AM 42.9275 -93.0425 128° Southeast 554 638 45,000  Level Minneapolis Center
Fri 03:27:18 AM 42.8347 -92.8808 128° Southeast 549 632 45,000  Level Minneapolis Center
Fri 03:27:56 AM 42.7758 -92.7831 129° Southeast 553 636 45,000  Level Chicago Center
Fri 03:28:56 AM 42.6897 -92.6111 124° Southeast 569 655 45,000  Level Chicago Center
Fri 03:29:56 AM 42.7111 -92.4203 81° East 533 613 45,000  Level Chicago Center
Fri 03:30:56 AM 42.8164 -92.3636 22° Northeast 418 481 45,000  Level Chicago Center
Fri 03:31:57 AM 42.8633 -92.4608 303° West 344 396 45,000  Level Chicago Center
Fri 03:32:57 AM 42.8883 -92.5836 286° West 340 391 45,000  Level Chicago Center
Fri 03:33:57 AM 42.9408 -92.6872 305° West 335 386 45,000  Level Chicago Center
Fri 03:34:58 AM 42.9933 -92.7925 304° West 337 388 45,000  Level Chicago Center
Fri 03:35:58 AM 43.0481 -92.8983 305° West 342 394 45,000  Level Chicago Center
Fri 03:36:58 AM 43.0994 -93.0036 304° West 338 389 45,000  Level Chicago Center
Fri 03:37:58 AM 43.1519 -93.1081 305° West 335 386 45,000  Level Chicago Center
Fri 03:38:59 AM 43.2039 -93.2136 304° West 336 387 45,000  Level Chicago Center
Fri 03:39:59 AM 43.2561 -93.3194 304° West 337 388 45,000  Level Chicago Center
Fri 03:40:59 AM 43.3200 -93.4469 305° West 339 390 45,000  Level Chicago Center
Fri 03:41:59 AM 43.3722 -93.5567 303° West 344 396 45,000  Level Chicago Center
Fri 03:43:00 AM 43.4256 -93.6628 305° West 341 392 45,000  Level Chicago Center
Fri 03:44:25 AM 43.5006 -93.8158 304° West 345 397 45,000  Level Minneapolis Center
Fri 03:45:26 AM 43.5483 -93.9131 304° West 345 397 45,000  Level Minneapolis Center
Fri 03:46:26 AM 43.6131 -94.0453 304° West 347 399 45,000  Level Minneapolis Center
Fri 03:47:27 AM 43.6672 -94.1561 304° West 348 400 45,000  Level Minneapolis Center
Fri 03:48:27 AM 43.7183 -94.2631 304° West 349 402 45,000  Level Minneapolis Center
Fri 03:49:27 AM 43.7725 -94.3767 303° West 353 406 45,000  Level Minneapolis Center
Fri 03:50:28 AM 43.8267 -94.4886 304° West 352 405 45,000  Level Minneapolis Center
Fri 03:51:28 AM 43.8800 -94.6019 303° West 351 404 45,000  Level Minneapolis Center
Fri 03:52:29 AM 43.9361 -94.7172 304° West 359 413 45,000  Level Minneapolis Center
Fri 03:53:29 AM 43.9900 -94.8319 303° West 357 411 45,000  Level Minneapolis Center
Fri 03:54:30 AM 44.0444 -94.9469 303° West 357 411 45,000  Level Minneapolis Center
Fri 03:55:30 AM 44.0986 -95.0625 303° West 357 411 45,000  Level Minneapolis Center
Fri 03:56:31 AM 44.1533 -95.1783 303° West 359 413 45,000  Level Minneapolis Center
Fri 03:57:31 AM 44.2078 -95.2986 302° West 364 419 45,000  Level Minneapolis Center
Fri 03:58:32 AM 44.2633 -95.4178 303° West 367 422 45,000  Level Minneapolis Center
Fri 03:59:32 AM 44.3181 -95.5361 303° West 367 422 45,000  Level Minneapolis Center
Fri 04:00:33 AM 44.3717 -95.6544 302° West 364 419 45,000  Level Minneapolis Center
Fri 04:01:33 AM 44.4353 -95.8019 301° West 371 427 45,000  Level Minneapolis Center
Fri 04:02:34 AM 44.4531 -95.9414 280° West 368 423 45,000  Level Minneapolis Center
Fri 04:03:34 AM 44.4519 -96.0808 269° West 363 418 45,000  Level Minneapolis Center
Fri 04:04:35 AM 44.4528 -96.2203 271° West 363 418 45,000  Level Minneapolis Center
Fri 04:05:35 AM 44.4517 -96.3628 269° West 371 427 45,000  Level Minneapolis Center
Fri 04:06:36 AM 44.4517 -96.5044 270° West 370 426 45,000  Level Minneapolis Center
Fri 04:07:36 AM 44.4514 -96.6478 270° West 372 428 45,000  Level Minneapolis Center
Fri 04:08:37 AM 44.4514 -96.7903 270° West 369 425 45,000  Level Minneapolis Center
Fri 04:09:37 AM 44.4506 -96.9300 270° West 362 417 45,000  Level Minneapolis Center
Fri 04:10:38 AM 44.4511 -97.0739 270° West 370 426 45,000  Level Minneapolis Center
Fri 04:11:38 AM 44.4497 -97.2197 269° West 375 432 45,000  Level Minneapolis Center
Fri 04:12:39 AM 44.4486 -97.3631 269° West 371 427 45,000  Level Minneapolis Center
Fri 04:13:39 AM 44.4475 -97.5117 269° West 382 440 45,000  Level Minneapolis Center
Fri 04:14:40 AM 44.4458 -97.6614 269° West 386 444 45,000  Level Minneapolis Center
Fri 04:15:40 AM 44.4456 -97.8058 270° West 373 429 45,000  Level Minneapolis Center
Fri 04:16:41 AM 44.4433 -97.9806 269° West 375 432 45,000  Level Minneapolis Center
Fri 04:17:42 AM 44.4425 -98.1286 270° West 379 436 45,000  Level Minneapolis Center
Fri 04:19:00 AM 44.3307 -98.3197 231° Southwest  Level FlightAware Approximate
Fri 04:19:43 AM 44.3867 -98.4006 231° Southwest 391 450 45,000  Level Minneapolis Center
Fri 04:20:43 AM 44.3094 -98.5192 228° Southwest 407 468 45,000  Level Minneapolis Center
Fri 04:21:44 AM 44.2033 -98.6150 213° Southwest 414 476 45,000  Level Minneapolis Center
Fri 04:22:44 AM 44.1075 -98.6986 212° Southwest 410 472 45,000  Level Minneapolis Center
Fri 04:23:45 AM 44.0172 -98.7750 211° Southwest 414 476 45,000  Level Minneapolis Center
Fri 04:24:46 AM 43.9175 -98.8611 212° Southwest 418 481 45,000  Level Minneapolis Center
Fri 04:25:46 AM 43.8181 -98.9467 212° Southwest 419 482 45,000  Level Minneapolis Center
Fri 04:26:47 AM 43.7175 -99.0308 211° Southwest 420 483 45,000  Level Minneapolis Center
Fri 04:27:47 AM 43.6158 -99.1172 212° Southwest 427 491 45,000  Level Minneapolis Center
Fri 04:28:48 AM 43.5167 -99.2022 212° Southwest 421 484 45,000  Level Minneapolis Center
Fri 04:29:49 AM 43.4008 -99.3006 212° Southwest 411 473 45,000  Level Minneapolis Center
Fri 04:30:49 AM 43.3047 -99.3814 211° Southwest 405 466 45,000  Level Minneapolis Center
Fri 04:31:50 AM 43.2053 -99.4650 212° Southwest 413 475 45,000  Level Minneapolis Center
Fri 04:32:50 AM 43.1056 -99.5472 211° Southwest 417 480 45,000  Level Minneapolis Center
Fri 04:33:51 AM 43.0069 -99.6311 212° Southwest 417 480 45,000  Level Minneapolis Center
Fri 04:34:52 AM 42.9069 -99.7139 211° Southwest 420 483 45,000  Level Minneapolis Center
Fri 04:35:52 AM 42.8106 -99.8006 213° Southwest 417 480 45,000  Level Minneapolis Center
Fri 04:36:53 AM 42.7406 -99.9094 229° Southwest 392 451 45,000  Level Minneapolis Center
Fri 04:37:53 AM 42.6781 -100.0314 235° Southwest 392 451 45,000  Level Minneapolis Center
Fri 04:38:54 AM 42.6133 -100.1553 235° Southwest 400 460 45,000  Level Minneapolis Center
Fri 04:39:32 AM 42.5733 -100.2333 235° Southwest 404 465 45,000  Level Denver Center
Fri 04:40:32 AM 42.5100 -100.3525 234° Southwest 407 468 45,000  Level Denver Center
Fri 04:41:32 AM 42.4369 -100.4928 235° Southwest 409 471 45,000  Level Denver Center
Fri 04:42:33 AM 42.3736 -100.6117 234° Southwest 408 470 45,000  Level Denver Center
Fri 04:43:33 AM 42.3111 -100.7314 235° Southwest 407 468 45,000  Level Denver Center
Fri 04:44:34 AM 42.2386 -100.8669 234° Southwest 400 460 45,000  Level Denver Center
Fri 04:45:34 AM 42.1783 -100.9781 234° Southwest 389 448 45,000  Level Denver Center
Fri 04:46:34 AM 42.1167 -101.0958 235° Southwest 399 459 45,000  Level Denver Center
Fri 04:47:35 AM 42.0553 -101.2106 234° Southwest 397 457 45,000  Level Denver Center
Fri 04:48:35 AM 41.9817 -101.3433 233° Southwest 398 458 45,000  Level Denver Center
Fri 04:49:35 AM 41.9214 -101.4553 234° Southwest 389 448 45,000  Level Denver Center
Fri 04:50:36 AM 41.8583 -101.5700 234° Southwest 397 457 45,000  Level Denver Center
Fri 04:51:36 AM 41.7856 -101.7044 234° Southwest 401 461 45,000  Level Denver Center
Fri 04:52:36 AM 41.7222 -101.8194 234° Southwest 401 461 45,000  Level Denver Center
Fri 04:53:37 AM 41.6592 -101.9342 234° Southwest 403 464 45,000  Level Denver Center
Fri 04:54:37 AM 41.5828 -102.0700 233° Southwest 409 471 45,000  Level Denver Center
Fri 04:55:38 AM 41.5189 -102.1839 233° Southwest 405 466 45,000 -248 Level Denver Center
Fri 04:56:38 AM 41.4553 -102.2983 233° Southwest 402 463 44,500 -850 Descending Denver Center
Fri 04:57:38 AM 41.3808 -102.4322 233° Southwest 404 465 43,300 -1,190 Descending Denver Center
Fri 04:58:39 AM 41.3167 -102.5439 233° Southwest 397 457 42,100 -1,339 Descending Denver Center
Fri 04:59:39 AM 41.2497 -102.6636 233° Southwest 397 457 40,600 -1,438 Descending Denver Center
Fri 05:00:40 AM 41.1894 -102.7686 233° Southwest 398 458 39,200 -1,537 Descending Denver Center
Fri 05:01:40 AM 41.1181 -102.8950 233° Southwest 390 449 37,500 -1,700 Descending Denver Center
Fri 05:02:40 AM 41.0497 -103.0139 233° Southwest 395 455 35,800 -1,650 Descending Denver Center
Fri 05:03:40 AM 40.9831 -103.1286 232° Southwest 405 466 34,200 -1,686 Descending Denver Center
Fri 05:04:41 AM 40.9189 -103.2414 233° Southwest 412 474 32,400 -1,884 Descending Denver Center
Fri 05:05:41 AM 40.8483 -103.3619 232° Southwest 416 479 30,400 -2,000 Descending Denver Center
Fri 05:06:41 AM 40.7758 -103.4878 233° Southwest 429 494 28,400 -2,022 Descending Denver Center
Fri 05:08:00 AM 40.6739 -103.6839 234° Southwest  Level Estimated
Fri 05:08:42 AM 40.6350 -103.7294 234° Southwest 412 474 24,300  Level Denver Center
Fri 05:09:42 AM 40.5669 -103.8442 232° Southwest 400 460 22,300 -1,983 Descending Denver Center
Fri 05:10:43 AM 40.4983 -103.9603 232° Southwest 401 461 20,300 -2,075 Descending Denver Center
Fri 05:11:55 AM 40.4081 -104.1167 233° Southwest 398 458 17,700 -2,091 Descending Denver Center
Fri 05:12:55 AM 40.3419 -104.2256 231° Southwest 384 442 15,700 -1,983 Descending Denver Center
Fri 05:13:56 AM 40.2781 -104.3328 232° Southwest 376 433 13,700 -1,835 Descending Denver Center
Fri 05:14:56 AM 40.2161 -104.4356 232° Southwest 363 418 12,000 -900 Descending Denver Center
Fri 05:15:56 AM 40.1603 -104.5303 232° Southwest 328 377 11,900 -744 Descending Denver Center
Fri 05:16:57 AM 40.1031 -104.6244 232° Southwest 331 381 10,500 -1,339 Descending Denver Center
Fri 05:17:57 AM 40.0506 -104.7097 231° Southwest 307 353 9,200 -1,400 Descending Denver Center
Fri 05:18:57 AM 39.9958 -104.7781 224° Southwest 281 323 7,700 -942 Descending Denver Center
Fri 05:19:58 AM 39.9375 -104.8478 223° Southwest 273 314 7,300 -393 Descending Denver Center

Login

Don't have an account? Register now (free) for customized features, flight alerts, and more!